Time;durP1;ratioP1;P1;durP2;ratioP2;P2;SDS_P1;SDS_P2;PMS_P1;PMS_P2;Temp;Humidity;BMP_temperature;BMP_pressure;BME280_temperature;BME280_humidity;BME280_pressure;Samples;Min_cycle;Max_cycle;Signal;HPM_P1;HPM_P2
2023/01/20 00:01:37;;;;;;;3.78;1.10;;;0.50;99.90;;;;;;5021189;28;20029;-81
2023/01/20 00:04:03;;;;;;;3.28;0.93;;;0.50;99.90;;;;;;5015512;28;20475;-81
2023/01/20 00:06:29;;;;;;;3.53;1.13;;;0.50;99.90;;;;;;5015627;28;20036;-81
2023/01/20 00:08:57;;;;;;;3.25;1.00;;;0.40;99.90;;;;;;5017634;28;20025;-81
2023/01/20 00:11:23;;;;;;;3.78;0.90;;;0.40;99.90;;;;;;5020935;28;20393;-81
2023/01/20 00:13:55;;;;;;;3.70;0.95;;;0.40;99.90;;;;;;5017736;28;20026;-82
2023/01/20 00:16:22;;;;;;;4.55;1.33;;;0.40;99.90;;;;;;5019029;28;20026;-82
2023/01/20 00:18:47;;;;;;;3.95;1.45;;;0.40;99.90;;;;;;5016949;28;20022;-81
2023/01/20 00:21:15;;;;;;;5.45;2.60;;;0.40;99.90;;;;;;5016892;28;20557;-82
2023/01/20 00:23:42;;;;;;;8.40;2.95;;;0.40;99.90;;;;;;5015784;28;20039;-82
2023/01/20 00:26:11;;;;;;;8.32;3.58;;;0.50;99.90;;;;;;5018778;28;20494;-82
2023/01/20 00:28:37;;;;;;;13.00;6.43;;;0.50;99.90;;;;;;5020720;28;20056;-81
2023/01/20 00:31:18;;;;;;;17.55;8.90;;;0.50;99.90;;;;;;5017759;28;20715;-81
2023/01/20 00:33:44;;;;;;;20.83;10.18;;;0.50;99.90;;;;;;5010604;28;20482;-82
2023/01/20 00:36:12;;;;;;;17.15;7.93;;;0.50;99.90;;;;;;5017556;28;20490;-81
2023/01/20 00:38:38;;;;;;;18.27;10.23;;;0.50;99.90;;;;;;5023203;28;20161;-82
2023/01/20 00:41:05;;;;;;;18.48;9.40;;;0.50;99.90;;;;;;5021701;28;20278;-81
2023/01/20 00:43:30;;;;;;;18.70;9.60;;;0.50;99.90;;;;;;5013756;28;20052;-82
2023/01/20 00:45:56;;;;;;;18.33;8.52;;;0.50;99.90;;;;;;5015622;28;20113;-81
2023/01/20 00:48:22;;;;;;;18.73;9.85;;;0.50;99.90;;;;;;5019692;28;20051;-82
2023/01/20 00:50:48;;;;;;;17.13;9.32;;;0.50;99.90;;;;;;5016686;28;20028;-81
2023/01/20 00:53:13;;;;;;;17.73;9.05;;;0.50;99.90;;;;;;5004784;28;20038;-82
2023/01/20 00:55:39;;;;;;;14.13;7.40;;;0.60;99.90;;;;;;5026380;28;20029;-81
2023/01/20 00:58:05;;;;;;;18.27;9.00;;;0.50;99.90;;;;;;5017957;28;20466;-81
2023/01/20 01:00:30;;;;;;;12.90;6.18;;;0.50;99.90;;;;;;5024323;28;20030;-81
2023/01/20 01:02:56;;;;;;;17.08;9.13;;;0.50;99.90;;;;;;5015554;28;20079;-82
2023/01/20 01:05:22;;;;;;;16.40;8.35;;;0.60;99.90;;;;;;5015125;28;20037;-81
2023/01/20 01:07:48;;;;;;;15.68;8.10;;;0.60;99.90;;;;;;5010358;28;20184;-81
2023/01/20 01:10:14;;;;;;;18.75;10.25;;;0.60;99.90;;;;;;5017367;28;20583;-81
2023/01/20 01:12:40;;;;;;;19.45;10.05;;;0.60;99.90;;;;;;5016350;28;20022;-81
2023/01/20 01:15:06;;;;;;;16.15;8.27;;;0.60;99.90;;;;;;5017982;28;20033;-82
2023/01/20 01:17:31;;;;;;;21.42;9.57;;;0.60;99.90;;;;;;5026678;28;20026;-81
2023/01/20 01:19:57;;;;;;;14.43;6.43;;;0.60;99.90;;;;;;5017247;28;20022;-81
2023/01/20 01:22:23;;;;;;;25.48;12.35;;;0.60;99.90;;;;;;5014914;28;20022;-81
2023/01/20 01:24:49;;;;;;;35.60;18.05;;;0.60;99.90;;;;;;5017489;28;20606;-80
2023/01/20 01:27:15;;;;;;;34.15;17.13;;;0.60;99.90;;;;;;5025386;28;20030;-81
2023/01/20 01:29:40;;;;;;;35.47;17.40;;;0.60;99.90;;;;;;5009326;28;20037;-81
2023/01/20 01:32:06;;;;;;;31.92;16.50;;;0.60;99.90;;;;;;5006211;28;20025;-81
2023/01/20 01:34:32;;;;;;;26.55;13.80;;;0.60;99.90;;;;;;5020284;28;20037;-81
2023/01/20 01:36:58;;;;;;;26.58;13.02;;;0.60;99.90;;;;;;5027923;28;20037;-81
2023/01/20 01:39:24;;;;;;;25.05;12.30;;;0.60;99.90;;;;;;5016928;28;20036;-81
2023/01/20 01:41:49;;;;;;;23.35;11.00;;;0.60;99.90;;;;;;5017699;28;20056;-81
2023/01/20 01:44:15;;;;;;;32.67;16.17;;;0.60;99.90;;;;;;5020613;28;20037;-81
2023/01/20 01:46:42;;;;;;;35.78;18.88;;;0.60;99.90;;;;;;5015990;28;20479;-81
2023/01/20 01:49:19;;;;;;;29.92;14.80;;;0.60;99.90;;;;;;5014615;28;20053;-81
2023/01/20 01:52:04;;;;;;;26.00;13.05;;;0.60;99.90;;;;;;5021628;28;20485;-81
2023/01/20 01:54:34;;;;;;;22.88;10.93;;;0.60;99.90;;;;;;5018145;28;20485;-80
2023/01/20 01:57:00;;;;;;;22.20;10.70;;;0.60;99.90;;;;;;5018193;28;20018;-80
2023/01/20 01:59:26;;;;;;;32.05;15.13;;;0.60;99.90;;;;;;5019254;28;20027;-81
2023/01/20 02:01:53;;;;;;;28.52;13.25;;;0.60;99.90;;;;;;5024263;28;20050;-81
2023/01/20 02:04:24;;;;;;;25.17;12.60;;;0.60;99.90;;;;;;5022243;28;20045;-81
2023/01/20 02:06:53;;;;;;;21.27;11.07;;;0.60;99.90;;;;;;5024633;28;20018;-81
2023/01/20 02:09:19;;;;;;;22.15;11.07;;;0.60;99.90;;;;;;5033817;28;20034;-81
2023/01/20 02:11:49;;;;;;;20.67;9.30;;;0.60;99.90;;;;;;5029459;28;20036;-80
2023/01/20 02:14:18;;;;;;;27.55;14.20;;;0.60;99.90;;;;;;5023038;28;20088;-80
2023/01/20 02:17:00;;;;;;;27.52;13.65;;;0.60;99.90;;;;;;5021218;28;20022;-80
2023/01/20 02:19:34;;;;;;;36.70;17.33;;;0.60;99.90;;;;;;5017767;28;20050;-80
2023/01/20 02:22:37;;;;;;;31.17;15.35;;;0.60;99.90;;;;;;5023735;28;20026;-80
2023/01/20 02:25:15;;;;;;;32.15;15.43;;;0.60;99.90;;;;;;5022357;28;20095;-81
2023/01/20 02:28:04;;;;;;;24.95;12.57;;;0.50;99.90;;;;;;5021394;28;20021;-81
2023/01/20 02:31:03;;;;;;;26.92;12.45;;;0.60;99.90;;;;;;4948134;29;20667;-81
2023/01/20 02:33:37;;;;;;;21.10;10.65;;;0.60;99.90;;;;;;4945852;29;20566;-80
2023/01/20 02:36:12;;;;;;;20.00;9.88;;;0.60;99.90;;;;;;4937988;29;20031;-80
2023/01/20 02:39:08;;;;;;;19.95;8.48;;;0.60;99.90;;;;;;4948082;29;20539;-80
2023/01/20 02:42:04;;;;;;;16.98;8.23;;;0.60;99.90;;;;;;4947929;28;20043;-81
2023/01/20 02:44:34;;;;;;;16.42;7.53;;;0.60;99.90;;;;;;4933568;29;20070;-80
2023/01/20 02:47:03;;;;;;;;;;;0.70;99.90;;;;;;4947020;29;20634;-80
2023/01/20 02:49:35;;;;;;;15.30;5.85;;;0.60;99.90;;;;;;4990860;28;20406;-80
2023/01/20 02:52:06;;;;;;;14.32;6.00;;;0.60;99.90;;;;;;5009097;28;20096;-80
2023/01/20 02:54:35;;;;;;;13.75;5.68;;;0.60;99.90;;;;;;5020247;28;20033;-81
2023/01/20 02:57:04;;;;;;;11.48;5.00;;;0.70;99.90;;;;;;5010990;28;20068;-80
2023/01/20 02:59:35;;;;;;;12.52;5.97;;;0.70;99.90;;;;;;5020256;28;20084;-80
2023/01/20 03:02:09;;;;;;;10.65;4.75;;;0.70;99.90;;;;;;5018530;28;20531;-80
2023/01/20 03:04:44;;;;;;;12.95;6.55;;;0.60;99.90;;;;;;5022215;28;20037;-80
2023/01/20 03:07:12;;;;;;;12.95;7.05;;;0.60;99.90;;;;;;5021269;28;20036;-80
2023/01/20 03:09:43;;;;;;;12.15;6.22;;;0.60;99.90;;;;;;5020140;28;20116;-80
2023/01/20 03:12:16;;;;;;;14.68;7.10;;;0.60;99.90;;;;;;5023095;28;20021;-80
2023/01/20 03:14:42;;;;;;;19.73;9.70;;;0.60;99.90;;;;;;5021039;28;20390;-80
2023/01/20 03:17:08;;;;;;;17.80;8.85;;;0.60;99.90;;;;;;5020554;28;20025;-81
2023/01/20 03:19:34;;;;;;;18.13;9.52;;;0.60;99.90;;;;;;5022729;28;20398;-81
2023/01/20 03:22:00;;;;;;;19.13;9.68;;;0.50;99.90;;;;;;5019187;28;20109;-80
2023/01/20 03:24:29;;;;;;;14.52;7.28;;;0.60;99.90;;;;;;5020420;28;20124;-81
2023/01/20 03:26:55;;;;;;;14.15;6.47;;;0.60;99.90;;;;;;5019271;28;20030;-80
2023/01/20 03:29:20;;;;;;;15.07;7.32;;;0.70;99.90;;;;;;5021011;28;20030;-81
2023/01/20 03:32:00;;;;;;;17.00;8.05;;;0.70;99.90;;;;;;5022351;28;20033;-80
2023/01/20 03:34:29;;;;;;;14.48;7.13;;;0.60;99.90;;;;;;5018869;28;20034;-81
2023/01/20 03:36:56;;;;;;;14.60;7.20;;;0.60;99.90;;;;;;5019103;28;20026;-80
2023/01/20 03:39:23;;;;;;;14.85;7.20;;;0.70;99.90;;;;;;5018606;28;20032;-80
2023/01/20 03:42:12;;;;;;;13.98;7.10;;;0.60;99.90;;;;;;5016869;28;20063;-81
2023/01/20 03:45:00;;;;;;;15.70;7.22;;;0.70;99.90;;;;;;5018533;28;20037;-80
2023/01/20 03:47:44;;;;;;;15.48;7.07;;;0.70;99.90;;;;;;5023140;28;20029;-80
2023/01/20 03:50:24;;;;;;;13.40;6.35;;;0.70;99.90;;;;;;5019898;28;20058;-80
2023/01/20 03:52:54;;;;;;;;;;;0.70;99.90;;;;;;5018629;28;20046;-79
2023/01/20 03:55:33;;;;;;;11.90;4.80;;;0.60;99.90;;;;;;5020387;28;19913;-80
2023/01/20 03:58:06;;;;;;;12.50;5.93;;;0.60;99.90;;;;;;5021426;28;20029;-79
2023/01/20 04:00:36;;;;;;;13.07;5.55;;;0.60;99.90;;;;;;5019875;28;20029;-80
2023/01/20 04:03:06;;;;;;;19.80;8.15;;;0.60;99.90;;;;;;5003374;28;20482;-80
2023/01/20 04:05:32;;;;;;;18.52;8.52;;;0.60;99.90;;;;;;5026572;28;20393;-80
2023/01/20 04:08:04;;;;;;;17.52;7.75;;;0.60;99.90;;;;;;5023323;28;20525;-79
2023/01/20 04:10:31;;;;;;;17.20;7.38;;;0.60;99.90;;;;;;4999397;28;20026;-79
2023/01/20 04:12:57;;;;;;;20.13;7.13;;;0.70;99.90;;;;;;5017839;28;20120;-79
2023/01/20 04:15:25;;;;;;;15.45;6.95;;;0.60;99.90;;;;;;5025512;28;20438;-79
2023/01/20 04:17:51;;;;;;;19.73;8.02;;;0.60;99.90;;;;;;5017253;28;20109;-79
2023/01/20 04:20:18;;;;;;;20.50;8.45;;;0.70;99.90;;;;;;5015109;28;20480;-79
2023/01/20 04:22:54;;;;;;;21.23;8.75;;;0.70;99.90;;;;;;5021355;28;20513;-79
2023/01/20 04:25:31;;;;;;;18.08;8.45;;;0.70;99.90;;;;;;5033588;28;20502;-80
2023/01/20 04:27:56;;;;;;;18.50;7.82;;;0.60;99.90;;;;;;5018714;28;20026;-79
2023/01/20 04:30:22;;;;;;;16.02;7.57;;;0.60;99.90;;;;;;5025762;28;20026;-80
2023/01/20 04:32:48;;;;;;;18.05;7.60;;;0.70;99.90;;;;;;5015586;28;20030;-79
2023/01/20 04:35:16;;;;;;;26.85;12.35;;;0.60;99.90;;;;;;5018934;28;20030;-79
2023/01/20 04:37:42;;;;;;;27.13;12.57;;;0.60;99.90;;;;;;5015650;28;20026;-79
2023/01/20 04:40:08;;;;;;;24.17;11.48;;;0.60;99.90;;;;;;5017685;28;20022;-79
2023/01/20 04:42:34;;;;;;;30.00;12.48;;;0.60;99.90;;;;;;5018488;28;20033;-79
2023/01/20 04:45:00;;;;;;;27.15;12.45;;;0.60;99.90;;;;;;5013129;28;20042;-78
2023/01/20 04:47:30;;;;;;;24.10;10.65;;;0.60;99.90;;;;;;5021552;28;20053;-79
2023/01/20 04:49:55;;;;;;;29.23;12.15;;;0.50;99.90;;;;;;5016621;28;20088;-79
2023/01/20 04:52:21;;;;;;;29.83;12.48;;;0.60;99.90;;;;;;5019180;28;20022;-78
2023/01/20 04:54:46;;;;;;;25.75;11.35;;;0.50;99.90;;;;;;5026235;28;20111;-79
2023/01/20 04:57:12;;;;;;;22.67;10.30;;;0.50;99.90;;;;;;5014848;28;20045;-79
2023/01/20 04:59:38;;;;;;;22.85;8.45;;;0.50;99.90;;;;;;5016988;28;20028;-79
2023/01/20 05:02:03;;;;;;;17.77;7.53;;;0.50;99.90;;;;;;5016129;28;20033;-79
2023/01/20 05:04:29;;;;;;;19.55;8.40;;;0.60;99.90;;;;;;5001871;28;20449;-79
2023/01/20 05:06:55;;;;;;;24.45;9.73;;;0.50;99.90;;;;;;5024712;28;20060;-79
2023/01/20 05:09:20;;;;;;;23.60;10.68;;;0.50;99.90;;;;;;5018196;28;20049;-79
2023/01/20 05:11:46;;;;;;;25.25;10.65;;;0.50;99.90;;;;;;5018552;28;20053;-79
2023/01/20 05:14:12;;;;;;;21.25;9.18;;;0.60;99.90;;;;;;5024072;28;20247;-79
2023/01/20 05:16:38;;;;;;;20.60;8.90;;;0.50;99.90;;;;;;5017324;28;20036;-78
2023/01/20 05:19:04;;;;;;;21.33;8.68;;;0.50;99.90;;;;;;5019864;28;20037;-79
2023/01/20 05:21:29;;;;;;;20.50;8.45;;;0.60;99.90;;;;;;5021566;28;20028;-78
2023/01/20 05:23:56;;;;;;;18.23;7.28;;;0.60;99.90;;;;;;5007502;28;20046;-79
2023/01/20 05:26:22;;;;;;;19.30;7.75;;;0.60;99.90;;;;;;5000174;28;20099;-78
2023/01/20 05:28:48;;;;;;;19.02;7.47;;;0.60;99.90;;;;;;5009015;28;20041;-78
2023/01/20 05:31:14;;;;;;;18.85;7.40;;;0.60;99.90;;;;;;5016589;28;20121;-78
2023/01/20 05:33:40;;;;;;;23.83;9.65;;;0.60;99.90;;;;;;5014893;28;20152;-78
2023/01/20 05:36:07;;;;;;;27.35;10.95;;;0.60;99.90;;;;;;5024800;28;20501;-78
2023/01/20 05:38:32;;;;;;;23.27;9.70;;;0.50;99.90;;;;;;5018431;28;20112;-78
2023/01/20 05:41:00;;;;;;;19.45;8.73;;;0.60;99.90;;;;;;5006065;28;20104;-80
2023/01/20 05:43:26;;;;;;;19.95;7.70;;;0.60;99.90;;;;;;5017444;28;20030;-79
2023/01/20 05:45:51;;;;;;;22.67;8.82;;;0.60;99.90;;;;;;5013771;28;20036;-78
2023/01/20 05:48:17;;;;;;;18.17;6.97;;;0.60;99.90;;;;;;5017131;28;20045;-78
2023/01/20 05:50:43;;;;;;;18.63;8.02;;;0.60;99.90;;;;;;5024597;28;20033;-78
2023/01/20 05:53:09;;;;;;;25.52;10.48;;;0.60;99.90;;;;;;5017172;28;20032;-78
2023/01/20 05:55:34;;;;;;;25.73;11.57;;;0.50;99.90;;;;;;5024841;28;20034;-78
2023/01/20 05:58:01;;;;;;;25.25;11.20;;;0.50;99.90;;;;;;5014731;28;20033;-78
2023/01/20 06:00:27;;;;;;;22.25;10.60;;;0.40;99.90;;;;;;5016301;28;20381;-78
2023/01/20 06:02:53;;;;;;;16.40;7.68;;;0.40;99.90;;;;;;5001663;28;20061;-78
2023/01/20 06:05:19;;;;;;;22.55;9.82;;;0.50;99.90;;;;;;5024381;28;20068;-78
2023/01/20 06:07:44;;;;;;;25.30;10.85;;;0.40;99.90;;;;;;5008369;28;20029;-78
2023/01/20 06:10:10;;;;;;;21.02;8.65;;;0.50;99.90;;;;;;5018772;28;20095;-79
2023/01/20 06:12:36;;;;;;;17.00;7.53;;;0.40;99.90;;;;;;5018970;28;20542;-78
2023/01/20 06:15:03;;;;;;;17.70;8.10;;;0.40;99.90;;;;;;5017164;28;20030;-78
2023/01/20 06:17:29;;;;;;;22.98;10.13;;;0.50;99.90;;;;;;5003338;28;20025;-78
2023/01/20 06:19:54;;;;;;;19.98;8.77;;;0.50;99.90;;;;;;5013879;28;20405;-78
2023/01/20 06:22:20;;;;;;;24.27;10.30;;;0.50;99.90;;;;;;5020772;28;20025;-79
2023/01/20 06:24:46;;;;;;;23.45;10.18;;;0.40;99.90;;;;;;5020430;28;20090;-78
2023/01/20 06:27:12;;;;;;;22.58;8.95;;;0.40;99.90;;;;;;5002952;28;20026;-78
2023/01/20 06:29:37;;;;;;;24.63;11.00;;;0.40;99.90;;;;;;5018304;28;20540;-78
2023/01/20 06:32:04;;;;;;;22.95;10.45;;;0.40;99.90;;;;;;5013925;28;20022;-78
2023/01/20 06:34:30;;;;;;;20.58;9.25;;;0.40;99.90;;;;;;5007040;28;20479;-78
2023/01/20 06:36:56;;;;;;;16.40;7.60;;;0.40;99.90;;;;;;5015520;28;20026;-79
2023/01/20 06:39:21;;;;;;;21.02;8.18;;;0.40;99.90;;;;;;5016238;28;20493;-79
2023/01/20 06:41:47;;;;;;;18.40;8.50;;;0.50;99.90;;;;;;5018447;28;20176;-79
2023/01/20 06:44:14;;;;;;;19.00;7.10;;;0.40;99.90;;;;;;5018462;28;20049;-79
2023/01/20 06:46:40;;;;;;;21.27;8.63;;;0.50;99.90;;;;;;5021995;28;20040;-79
2023/01/20 06:49:05;;;;;;;21.35;8.73;;;0.40;99.90;;;;;;5023554;28;20050;-78
2023/01/20 06:51:32;;;;;;;16.83;7.00;;;0.50;99.90;;;;;;5011784;28;20025;-78
2023/01/20 06:53:58;;;;;;;17.83;8.38;;;0.40;99.90;;;;;;5019614;28;20482;-78
2023/01/20 06:56:24;;;;;;;17.23;6.88;;;0.40;99.90;;;;;;5021983;28;20029;-78
2023/01/20 06:58:50;;;;;;;18.65;8.05;;;0.50;99.90;;;;;;5018625;28;20018;-78
2023/01/20 07:01:24;;;;;;;17.52;6.57;;;0.40;99.90;;;;;;5018203;28;20057;-78
2023/01/20 07:03:50;;;;;;;16.55;6.68;;;0.50;99.90;;;;;;5036231;28;20398;-78
2023/01/20 07:06:42;;;;;;;25.65;10.43;;;0.40;99.90;;;;;;5009195;28;20030;-78
2023/01/20 07:09:10;;;;;;;22.30;9.63;;;0.40;99.90;;;;;;5006838;28;20049;-78
2023/01/20 07:11:36;;;;;;;22.90;9.65;;;0.40;99.90;;;;;;5009036;28;20025;-78
2023/01/20 07:14:03;;;;;;;22.40;9.80;;;0.40;99.90;;;;;;5024529;28;20529;-78
2023/01/20 07:16:29;;;;;;;26.92;10.98;;;0.40;99.90;;;;;;5022973;28;20038;-77
2023/01/20 07:18:55;;;;;;;20.05;8.98;;;0.40;99.90;;;;;;4965343;28;20569;-77
2023/01/20 07:21:21;;;;;;;23.80;11.02;;;0.40;99.90;;;;;;5024107;28;20044;-78
2023/01/20 07:23:47;;;;;;;26.00;9.98;;;0.40;99.90;;;;;;5024500;28;20185;-77
2023/01/20 07:26:19;;;;;;;22.75;10.00;;;0.50;99.90;;;;;;5005047;28;20614;-78
2023/01/20 07:28:45;;;;;;;24.73;10.38;;;0.40;99.90;;;;;;5025231;28;20057;-77
2023/01/20 07:31:17;;;;;;;27.45;11.40;;;0.40;99.90;;;;;;5025935;28;20040;-78
2023/01/20 07:33:43;;;;;;;21.88;9.45;;;0.40;99.90;;;;;;5016112;28;20317;-78
2023/01/20 07:36:10;;;;;;;25.20;11.38;;;0.40;99.90;;;;;;5018913;28;20052;-78
2023/01/20 07:38:36;;;;;;;30.45;11.60;;;0.40;99.90;;;;;;5019080;28;20033;-79
2023/01/20 07:41:09;;;;;;;28.90;13.15;;;0.50;99.90;;;;;;5006915;28;20075;-78
2023/01/20 07:43:35;;;;;;;29.10;11.50;;;0.40;99.90;;;;;;5022987;28;20033;-77
2023/01/20 07:46:03;;;;;;;28.90;12.48;;;0.50;99.90;;;;;;5007284;28;20099;-77
2023/01/20 07:48:30;;;;;;;31.08;13.73;;;0.50;99.90;;;;;;5017685;28;20540;-79
2023/01/20 07:51:01;;;;;;;27.05;11.73;;;0.50;99.90;;;;;;5002913;28;20117;-78
2023/01/20 07:53:28;;;;;;;29.33;13.27;;;0.60;99.90;;;;;;5017151;28;20029;-77
2023/01/20 07:55:54;;;;;;;34.30;13.35;;;0.50;99.90;;;;;;5016620;28;20018;-77
2023/01/20 07:58:19;;;;;;;38.25;16.48;;;0.50;99.90;;;;;;5022099;28;20025;-77
2023/01/20 08:00:47;;;;;;;29.63;13.43;;;0.60;99.90;;;;;;5017129;28;20141;-77
2023/01/20 08:03:14;;;;;;;30.48;13.57;;;0.60;99.90;;;;;;5025110;28;20026;-77
2023/01/20 08:05:39;;;;;;;30.27;13.30;;;0.60;99.90;;;;;;5014593;28;20061;-77
2023/01/20 08:08:05;;;;;;;28.42;12.15;;;0.60;99.90;;;;;;5008092;28;20482;-77
2023/01/20 08:10:31;;;;;;;28.83;12.57;;;0.60;99.90;;;;;;5019516;28;20088;-78
2023/01/20 08:12:57;;;;;;;31.58;13.68;;;0.60;99.90;;;;;;5016841;28;20367;-77
2023/01/20 08:15:23;;;;;;;33.40;15.13;;;0.60;99.90;;;;;;5003166;28;20040;-77
2023/01/20 08:17:56;;;;;;;29.02;13.32;;;0.70;99.90;;;;;;5009060;28;20030;-77
2023/01/20 08:20:22;;;;;;;29.48;12.10;;;0.70;99.90;;;;;;5020557;28;20151;-77
2023/01/20 08:22:48;;;;;;;30.88;14.02;;;0.60;99.90;;;;;;5021581;28;20519;-77
2023/01/20 08:25:14;;;;;;;27.05;12.15;;;0.70;99.90;;;;;;5016746;28;20069;-77
2023/01/20 08:27:39;;;;;;;28.33;12.38;;;0.70;99.90;;;;;;5009125;28;20026;-77
2023/01/20 08:30:06;;;;;;;29.15;12.50;;;0.70;99.90;;;;;;5018139;28;20435;-78
2023/01/20 08:32:32;;;;;;;26.88;11.55;;;0.70;99.90;;;;;;5019629;28;20038;-78
2023/01/20 08:34:58;;;;;;;33.38;13.10;;;0.80;99.90;;;;;;5019426;28;20390;-78
2023/01/20 08:37:24;;;;;;;29.92;11.88;;;0.70;99.90;;;;;;5019556;28;20033;-77
2023/01/20 08:39:49;;;;;;;26.17;11.70;;;0.80;99.90;;;;;;5018215;28;20041;-77
2023/01/20 08:42:15;;;;;;;31.70;13.88;;;0.70;99.90;;;;;;5022070;28;20032;-78
2023/01/20 08:44:41;;;;;;;30.15;12.52;;;0.70;99.90;;;;;;5009303;28;20045;-78
2023/01/20 08:47:07;;;;;;;29.55;13.35;;;0.80;99.90;;;;;;5025988;28;20036;-78
2023/01/20 08:49:32;;;;;;;31.85;13.73;;;0.80;99.90;;;;;;5015580;28;20549;-77
2023/01/20 08:51:58;;;;;;;29.92;11.88;;;0.80;99.90;;;;;;5025650;28;20413;-78
2023/01/20 08:54:24;;;;;;;27.58;12.70;;;0.80;99.90;;;;;;5023349;28;20038;-78
2023/01/20 08:56:51;;;;;;;35.13;14.40;;;0.80;99.90;;;;;;5003537;28;20057;-77
2023/01/20 08:59:17;;;;;;;31.50;13.23;;;0.80;99.90;;;;;;5024948;28;20044;-77
2023/01/20 09:01:43;;;;;;;25.77;11.20;;;0.80;99.90;;;;;;5007325;28;20069;-78
2023/01/20 09:04:08;;;;;;;26.48;10.80;;;0.90;99.90;;;;;;5017792;28;20462;-78
2023/01/20 09:06:40;;;;;;;25.30;10.85;;;0.90;99.90;;;;;;5019377;28;20040;-77
2023/01/20 09:09:05;;;;;;;23.17;10.38;;;0.90;99.90;;;;;;5007660;28;20040;-78
2023/01/20 09:11:31;;;;;;;21.05;9.52;;;1.00;99.90;;;;;;5022297;28;20030;-77
2023/01/20 09:13:57;;;;;;;37.85;14.23;;;1.00;99.90;;;;;;5019830;28;20554;-78
2023/01/20 09:16:22;;;;;;;29.55;13.68;;;1.00;99.90;;;;;;5023919;28;20034;-78
2023/01/20 09:18:48;;;;;;;30.70;12.45;;;1.00;99.90;;;;;;5024055;28;20026;-78
2023/01/20 09:21:14;;;;;;;31.42;13.65;;;1.00;99.90;;;;;;5018372;28;20628;-78
2023/01/20 09:23:41;;;;;;;28.52;12.05;;;1.00;99.90;;;;;;5015235;28;20040;-77
2023/01/20 09:26:08;;;;;;;26.13;11.60;;;1.00;99.90;;;;;;5015688;28;20037;-78
2023/01/20 09:28:34;;;;;;;28.00;12.20;;;1.10;99.90;;;;;;5025175;28;20436;-78
2023/01/20 09:31:03;;;;;;;25.27;11.15;;;1.00;99.90;;;;;;5006892;28;20033;-78
2023/01/20 09:33:29;;;;;;;18.88;8.35;;;1.00;99.90;;;;;;5032249;28;20068;-78
2023/01/20 09:35:56;;;;;;;27.42;11.63;;;1.00;99.90;;;;;;5017602;28;20099;-79
2023/01/20 09:44:29;;;;;;;;;;;1.10;99.90;;;;;;5025927;28;20063;-79
2023/01/20 09:53:04;;;;;;;24.73;10.50;;;1.20;99.90;;;;;;4971071;28;20065;-79
2023/01/20 09:55:50;;;;;;;28.48;10.85;;;1.20;99.90;;;;;;4961269;28;20037;-79
2023/01/20 09:58:19;;;;;;;29.33;12.05;;;1.30;99.90;;;;;;4954085;28;20061;-79
2023/01/20 10:01:09;;;;;;;26.77;12.45;;;1.20;99.90;;;;;;4938480;28;20105;-79
2023/01/20 10:03:50;;;;;;;35.03;14.35;;;1.20;99.90;;;;;;4939377;28;20038;-79
2023/01/20 10:06:25;;;;;;;30.35;13.43;;;1.30;99.90;;;;;;4955882;28;20081;-78
2023/01/20 10:08:56;;;;;;;34.72;15.15;;;1.30;99.90;;;;;;4970384;28;20366;-78
2023/01/20 10:11:25;;;;;;;32.45;13.30;;;1.30;99.90;;;;;;4937242;28;20089;-79
2023/01/20 10:13:56;;;;;;;30.98;13.50;;;1.30;99.90;;;;;;4938767;28;20046;-79
2023/01/20 10:16:38;;;;;;;28.58;12.93;;;1.40;99.90;;;;;;4963411;28;20050;-79
2023/01/20 10:19:13;;;;;;;32.75;14.90;;;1.40;99.90;;;;;;4958960;28;20126;-79
2023/01/20 10:21:51;;;;;;;29.48;13.55;;;1.40;99.90;;;;;;4942054;28;20479;-79
2023/01/20 10:24:29;;;;;;;31.08;13.75;;;1.50;99.90;;;;;;5009627;28;20051;-79
2023/01/20 10:27:02;;;;;;;25.33;12.00;;;1.50;99.90;;;;;;5026539;28;20036;-77
2023/01/20 10:29:35;;;;;;;29.02;12.90;;;1.50;99.90;;;;;;5009602;28;20067;-78
2023/01/20 10:32:07;;;;;;;29.30;13.80;;;1.50;99.90;;;;;;5008631;28;20044;-78
2023/01/20 10:34:53;;;;;;;23.85;10.57;;;1.50;99.90;;;;;;5009059;28;20021;-79
2023/01/20 10:37:21;;;;;;;22.27;9.43;;;1.60;99.90;;;;;;5024555;28;20037;-78
2023/01/20 10:39:56;;;;;;;22.58;9.02;;;1.70;99.90;;;;;;5026483;28;20452;-78
2023/01/20 10:42:23;;;;;;;23.63;9.50;;;1.70;99.90;;;;;;5023979;28;20393;-78
2023/01/20 10:44:51;;;;;;;19.25;8.95;;;1.70;99.90;;;;;;5022543;28;20434;-78
2023/01/20 10:47:36;;;;;;;22.00;10.52;;;1.70;99.90;;;;;;5017812;28;20034;-79
2023/01/20 10:50:19;;;;;;;27.98;13.35;;;1.70;99.90;;;;;;5004737;28;20069;-79
2023/01/20 10:53:18;;;;;;;24.77;12.32;;;1.70;99.90;;;;;;5008182;28;20124;-79
2023/01/20 10:56:01;;;;;;;28.58;13.70;;;1.80;99.90;;;;;;5005248;28;20462;-78
2023/01/20 10:58:36;;;;;;;25.55;11.93;;;1.70;99.90;;;;;;5007127;28;20028;-79
2023/01/20 11:01:09;;;;;;;26.70;13.30;;;1.70;99.90;;;;;;5007146;28;20477;-78
2023/01/20 11:03:39;;;;;;;22.88;11.73;;;1.80;99.90;;;;;;5023260;28;20132;-78
2023/01/20 11:06:06;;;;;;;21.98;10.80;;;1.80;99.90;;;;;;5017620;28;20041;-79
2023/01/20 11:08:32;;;;;;;23.52;10.70;;;1.80;99.90;;;;;;5009290;28;20030;-78
2023/01/20 11:11:04;;;;;;;17.85;8.73;;;1.80;99.90;;;;;;5009511;28;20025;-78
2023/01/20 11:13:30;;;;;;;19.42;9.57;;;1.90;99.90;;;;;;5005065;28;20026;-78
2023/01/20 11:16:01;;;;;;;21.45;10.45;;;1.90;99.90;;;;;;5018892;28;20087;-79
2023/01/20 11:18:29;;;;;;;16.85;8.23;;;1.90;99.90;;;;;;5020661;28;20025;-79
2023/01/20 11:21:11;;;;;;;20.63;9.48;;;2.00;99.90;;;;;;5017364;28;20188;-78
2023/01/20 11:23:51;;;;;;;19.20;9.13;;;2.00;99.90;;;;;;5020038;28;20044;-78
2023/01/20 11:26:21;;;;;;;19.23;8.02;;;2.00;99.90;;;;;;5017815;28;20379;-78
2023/01/20 11:28:59;;;;;;;16.30;8.25;;;2.00;99.90;;;;;;5015137;28;20025;-78
2023/01/20 11:31:42;;;;;;;20.67;10.70;;;2.10;99.90;;;;;;5020515;28;20394;-79
2023/01/20 11:34:31;;;;;;;19.48;9.57;;;2.00;99.90;;;;;;5027391;28;20108;-78
2023/01/20 11:37:03;;;;;;;17.35;9.15;;;2.00;99.90;;;;;;5005543;28;20029;-78
2023/01/20 11:39:43;;;;;;;20.08;10.05;;;2.00;99.90;;;;;;5025135;28;20057;-78
2023/01/20 11:42:26;;;;;;;14.70;7.88;;;2.00;99.90;;;;;;5019167;28;20021;-78
2023/01/20 11:45:00;;;;;;;16.63;8.38;;;2.00;99.90;;;;;;5018241;28;20034;-79
2023/01/20 11:47:28;;;;;;;13.85;7.32;;;2.10;99.90;;;;;;5005808;28;20085;-79
2023/01/20 11:50:03;;;;;;;12.25;7.28;;;2.10;99.90;;;;;;5009656;28;20045;-78
2023/01/20 11:52:34;;;;;;;12.77;6.70;;;2.00;99.90;;;;;;5015512;28;20018;-79
2023/01/20 11:55:27;;;;;;;13.65;7.28;;;2.00;99.90;;;;;;5021937;28;20486;-78
2023/01/20 11:57:55;;;;;;;12.10;6.15;;;2.10;99.90;;;;;;4998227;28;20038;-78
2023/01/20 12:00:42;;;;;;;16.27;8.15;;;2.00;99.90;;;;;;5022895;28;20315;-79
2023/01/20 12:03:33;;;;;;;17.63;9.05;;;2.00;99.90;;;;;;5002651;28;20030;-79
2023/01/20 12:06:19;;;;;;;17.90;9.00;;;2.00;99.90;;;;;;5021832;28;20030;-79
2023/01/20 12:08:49;;;;;;;14.50;7.65;;;2.00;99.90;;;;;;5018431;28;20057;-79
2023/01/20 12:11:31;;;;;;;15.45;8.50;;;2.00;99.90;;;;;;5018738;28;20478;-80
2023/01/20 12:14:19;;;;;;;14.00;7.57;;;2.10;99.90;;;;;;5017499;28;20026;-79
2023/01/20 12:16:58;;;;;;;14.00;6.88;;;2.20;99.90;;;;;;5004608;28;20391;-79
2023/01/20 12:19:50;;;;;;;14.40;6.85;;;2.20;99.90;;;;;;5018402;28;20040;-79
2023/01/20 12:22:34;;;;;;;13.95;6.65;;;2.20;99.90;;;;;;5006786;28;20140;-78
2023/01/20 12:25:13;;;;;;;12.18;6.18;;;2.20;99.90;;;;;;5023411;28;20125;-79
2023/01/20 12:27:48;;;;;;;9.35;6.22;;;2.20;99.90;;;;;;5019519;28;20053;-78
2023/01/20 12:30:32;;;;;;;10.15;5.80;;;2.30;99.90;;;;;;5029211;28;20029;-78
2023/01/20 12:32:58;;;;;;;13.13;7.32;;;2.30;99.90;;;;;;5005132;28;20026;-79
2023/01/20 12:35:29;;;;;;;13.70;7.40;;;2.30;99.90;;;;;;5008980;28;20045;-78
2023/01/20 12:38:01;;;;;;;13.45;7.78;;;2.40;99.90;;;;;;5017974;28;20502;-79
2023/01/20 12:40:36;;;;;;;13.32;7.10;;;2.40;99.90;;;;;;5017704;28;20386;-79
2023/01/20 12:43:28;;;;;;;12.45;7.45;;;2.40;99.90;;;;;;5018097;28;20061;-79
2023/01/20 12:45:58;;;;;;;12.10;6.90;;;2.30;99.90;;;;;;5016792;28;20104;-79
2023/01/20 12:48:36;;;;;;;13.05;7.15;;;2.30;99.90;;;;;;5016076;28;20524;-79
2023/01/20 12:51:05;;;;;;;11.90;7.03;;;2.30;99.90;;;;;;5002705;28;20045;-80
2023/01/20 12:53:55;;;;;;;8.98;5.15;;;2.30;99.90;;;;;;5016018;28;20109;-80
2023/01/20 12:56:49;;;;;;;8.40;5.05;;;2.30;99.90;;;;;;5001217;28;20033;-79
2023/01/20 12:59:46;;;;;;;8.57;4.57;;;2.30;99.90;;;;;;5001731;28;20494;-79
2023/01/20 13:02:36;;;;;;;9.52;6.05;;;2.20;99.90;;;;;;5001803;28;20317;-79
2023/01/20 13:05:27;;;;;;;9.18;5.18;;;2.20;99.90;;;;;;5019849;28;20042;-79
2023/01/20 13:08:35;;;;;;;8.93;5.15;;;2.20;99.90;;;;;;5014876;28;20079;-79
2023/01/20 13:11:43;;;;;;;8.82;4.18;;;2.20;99.90;;;;;;5020628;28;20033;-79
2023/01/20 13:14:43;;;;;;;7.97;4.53;;;2.30;99.90;;;;;;4992420;28;20367;-80